Flight Track Log - Related Links

Times and Time Zones

All times are in EDT time to prevent confusion due to time zone crossing. See the SKW4632 flight status page for this flight to view local times or setup timezone preferences in your user account.

Time Position Orientation Groundspeed Altitude Reporting Facility
EDT Latitude Longitude Course Direction KTS MPH feet Rate Location/Type
Sat 01:11:57 PM 40.7778 -111.9975 50° Northeast 163 188 4,800  Level Salt Lake Center
Sat 01:13:23 PM 40.7575 -112.0731 251° West 231 266 7,200 1,662 Climbing Salt Lake Center
Sat 01:14:25 PM 40.8228 -112.1194 332° Northwest 280 322 8,900 1,742 Climbing Salt Lake Center
Sat 01:15:00 PM 41.0198 -112.0969 37° Northeast  Level FlightAware Approximate
Sat 01:15:27 PM 40.9044 -112.1453 347° North 304 350 10,800  Level Salt Lake Center
Sat 01:16:00 PM 41.1021 -111.9872 50° Northeast  Level FlightAware Approximate
Sat 01:16:29 PM 40.9889 -112.1700 348° North 308 354 12,700  Level Salt Lake Center
Sat 01:17:00 PM 41.1832 -111.8597 50° Northeast  Level FlightAware Approximate
Sat 01:17:31 PM 41.0933 -112.2031 347° North 327 376 14,900  Level Salt Lake Center
Sat 01:18:33 PM 41.1828 -112.2294 347° North 328 377 16,700 1,597 Climbing Salt Lake Center
Sat 01:19:35 PM 41.2739 -112.2564 347° North 335 386 18,200 1,548 Climbing Salt Lake Center
Sat 01:20:37 PM 41.3667 -112.2828 348° North 339 390 19,900 1,403 Climbing Salt Lake Center
Sat 01:21:39 PM 41.4611 -112.3117 347° North 347 399 21,100 1,161 Climbing Salt Lake Center
Sat 01:22:41 PM 41.5583 -112.3408 347° North 358 412 22,300 1,113 Climbing Salt Lake Center
Sat 01:23:43 PM 41.6594 -112.3711 347° North 371 427 23,400 1,210 Climbing Salt Lake Center
Sat 01:24:45 PM 41.7833 -112.4072 348° North 380 437 24,800 1,113 Climbing Salt Lake Center
Sat 01:25:47 PM 41.8856 -112.4408 346° North 379 436 25,700 968 Climbing Salt Lake Center
Sat 01:26:49 PM 41.9947 -112.4703 349° North 395 455 26,800 919 Climbing Salt Lake Center
Sat 01:27:51 PM 42.1008 -112.5036 347° North 394 453 27,600 774 Climbing Salt Lake Center
Sat 01:28:53 PM 42.2111 -112.5356 348° North 402 463 28,400 774 Climbing Salt Lake Center
Sat 01:29:55 PM 42.3208 -112.5706 347° North 406 467 29,200 823 Climbing Salt Lake Center
Sat 01:30:57 PM 42.4564 -112.6103 348° North 414 476 30,100 677 Climbing Salt Lake Center
Sat 01:31:59 PM 42.5689 -112.6450 347° North 413 475 30,600 484 Climbing Salt Lake Center
Sat 01:33:01 PM 42.6831 -112.6814 347° North 422 486 31,100 532 Climbing Salt Lake Center
Sat 01:34:03 PM 42.8044 -112.7167 348° North 428 493 31,700 435 Climbing Salt Lake Center
Sat 01:35:05 PM 42.9161 -112.7514 347° North 427 491 32,000 145 Climbing Salt Lake Center
Sat 01:36:07 PM 43.0483 -112.7939 347° North 435 501 32,000  Level Salt Lake Center
Sat 01:37:09 PM 43.1608 -112.8292 347° North 433 498 32,000  Level Salt Lake Center
Sat 01:38:12 PM 43.2897 -112.8686 347° North 425 489 32,000  Level Salt Lake Center
Sat 01:39:14 PM 43.4000 -112.9028 347° North 422 486 32,000  Level Salt Lake Center
Sat 01:40:16 PM 43.5267 -112.9436 347° North 421 484 32,000  Level Salt Lake Center
Sat 01:41:18 PM 43.6342 -112.9764 348° North 414 476 32,000  Level Salt Lake Center
Sat 01:42:20 PM 43.7628 -113.0186 347° North 420 483 32,000  Level Salt Lake Center
Sat 01:43:22 PM 43.8708 -113.0533 347° North 417 480 32,000  Level Salt Lake Center
Sat 01:44:24 PM 43.9972 -113.0939 347° North 419 482 32,000  Level Salt Lake Center
Sat 01:45:26 PM 44.1075 -113.1294 347° North 423 487 32,000  Level Salt Lake Center
Sat 01:46:28 PM 44.2147 -113.1650 347° North 417 480 32,000  Level Salt Lake Center
Sat 01:47:30 PM 44.3417 -113.2061 347° North 418 481 32,000  Level Salt Lake Center
Sat 01:48:32 PM 44.4519 -113.2425 347° North 422 486 32,000  Level Salt Lake Center
Sat 01:49:34 PM 44.5772 -113.2839 347° North 417 480 32,000  Level Salt Lake Center
Sat 01:50:36 PM 44.6881 -113.3197 347° North 421 484 32,000  Level Salt Lake Center
Sat 01:51:38 PM 44.8161 -113.3617 347° North 422 486 32,000  Level Salt Lake Center
Sat 01:52:40 PM 44.9244 -113.3989 346° North 419 482 32,000  Level Salt Lake Center
Sat 01:53:42 PM 45.0533 -113.4411 347° North 423 487 32,000  Level Salt Lake Center
Sat 01:54:44 PM 45.1647 -113.4783 347° North 427 491 32,000  Level Salt Lake Center
Sat 01:55:46 PM 45.2950 -113.5219 347° North 430 495 32,000 -339 Level Salt Lake Center
Sat 01:56:48 PM 45.3986 -113.5575 346° North 425 489 31,300 -1,403 Descending Salt Lake Center
Sat 01:57:50 PM 45.5144 -113.5978 346° North 426 490 29,100 -2,177 Descending Salt Lake Center
Sat 01:58:52 PM 45.6308 -113.6347 347° North 411 473 26,800 -2,129 Descending Salt Lake Center
Sat 01:59:54 PM 45.7358 -113.6711 346° North 394 453 24,700 -2,081 Descending Salt Lake Center
Sat 02:00:56 PM 45.8361 -113.7058 346° North 378 435 22,500 -2,177 Descending Salt Lake Center
Sat 02:01:58 PM 45.9511 -113.7475 346° North 359 413 20,200 -1,984 Descending Salt Lake Center
Sat 02:03:00 PM 46.0417 -113.7772 347° North 341 392 18,400 -1,694 Descending Salt Lake Center
Sat 02:04:02 PM 46.1264 -113.8083 346° North 323 372 16,700 -1,632 Descending Salt Lake Center
Sat 02:05:05 PM 46.2181 -113.8383 347° North 311 358 15,000 -816 Descending Salt Lake Center
Sat 02:06:07 PM 46.2944 -113.8658 346° North 285 328 15,000  Level Salt Lake Center
Sat 02:07:09 PM 46.3700 -113.8928 346° North 263 303 15,000 -823 Level Salt Lake Center
Sat 02:08:11 PM 46.4400 -113.9186 346° North 262 302 13,300 -1,935 Descending Salt Lake Center
Sat 02:09:13 PM 46.5244 -113.9483 346° North 289 333 11,000 -1,935 Descending Salt Lake Center
Sat 02:10:15 PM 46.6025 -113.9761 346° North 290 334 9,300 -1,258 Descending Salt Lake Center
Sat 02:11:17 PM 46.6750 -114.0036 345° North 252 290 8,400 -919 Descending Salt Lake Center
Sat 02:12:19 PM 46.7331 -114.0247 346° North 216 249 7,400 -1,210 Descending Salt Lake Center
Sat 02:13:21 PM 46.7908 -114.0469 345° North 199 229 5,900 -1,210 Descending Salt Lake Center
Sat 02:14:23 PM 46.8394 -114.0339 10° North 181 208 4,900 -968 Descending Salt Lake Center
Sat 02:15:25 PM 46.8842 -114.0364 358° North 155 178 3,900 -823 Descending Salt Lake Center
Sat 02:16:27 PM 46.9094 -114.0808 310° West 143 165 3,200 -677 Descending Salt Lake Center

Login

Don't have an account? Register now (free) for customized features, flight alerts, and more!